Berta — V2BQ6 — position and weather

sailwx.info

Track history (hours):
 
Tides and Currents Weather Stations Pressure Air Temp Water Temp Dewpoint Dewpoint Depression Visibility Wind Speed Wind Dir Waves Ship Positions

Berta

Last reported at 2017-Mar-28 17:33 UTC. Time now 2017-Mar-28 17:44 UTC.
Position N 53°32' E 009°55'.

Length 118 m; draft 7 m.

Type: Cargo ship. MMSI: 304586000.

Date/timePositionNaut miles runAvg speedWind from/ knotsBaromVisibWave heightAir tempDewpointWater temp
2017-Mar-28 17:33N 53°32' E 009°55'0 0.0
2017-Mar-28 16:33N 53°32' E 009°55'0 0.4
2017-Mar-28 15:33N 53°32' E 009°55'0 0.0
2017-Mar-28 14:33N 53°32' E 009°55'0 0.0
2017-Mar-28 13:33N 53°32' E 009°55'0 0.0
2017-Mar-28 12:33N 53°32' E 009°55'0 0.0
2017-Mar-28 11:33N 53°32' E 009°55'0 0.0
2017-Mar-28 10:33N 53°32' E 009°55'0 0.0
2017-Mar-28 09:33N 53°32' E 009°55'0 0.0
2017-Mar-28 08:33N 53°32' E 009°55'2 2.1
2017-Mar-28 07:33N 53°30' E 009°56'0 0.0
2017-Mar-28 06:33N 53°30' E 009°56'0 0.0
2017-Mar-28 05:33N 53°30' E 009°56'0 0.0
2017-Mar-28 04:33N 53°30' E 009°56'0 0.0
2017-Mar-28 03:33N 53°30' E 009°56'0 0.0
2017-Mar-28 02:33N 53°30' E 009°56'3 3.2
2017-Mar-28 01:33N 53°33' E 009°52'1312.7
2017-Mar-28 00:33N 53°37' E 009°32'1514.7
2017-Mar-27 23:34N 53°50' E 009°20'1312.9
2017-Mar-27 22:33N 53°51' E 008°58'1211.6
2017-Mar-27 21:33N 53°55' E 008°40'1313.0
2017-Mar-27 20:33N 53°59' E 008°19'1212.3
2017-Mar-27 19:34N 54°02' E 007°59'5 5.3
2017-Mar-27 18:33N 54°05' E 007°52'3 3.4
2017-Mar-27 17:33N 54°06' E 007°46'1111.3
2017-Mar-27 16:32N 54°13' E 007°30'2211.2
2017-Mar-27 14:34N 54°32' E 007°13'1110.9
2017-Mar-27 13:33N 54°42' E 007°05'1111.1
2017-Mar-27 12:33N 54°52' E 006°57'1111.1
2017-Mar-27 11:34N 55°02' E 006°49'1111.1
2017-Mar-27 10:33N 55°13' E 006°44'1111.4
2017-Mar-27 09:33N 55°24' E 006°39'1111.6
2017-Mar-27 08:34N 55°35' E 006°33'1611.4
2017-Mar-27 07:11N 55°51' E 006°28'9411.6
2017-Mar-26 23:05N 57°22' E 005°47'4211.8
2017-Mar-26 19:33N 58°03' E 005°27'1211.8
2017-Mar-26 18:33N 58°14' E 005°21'1211.6
2017-Mar-26 17:28N 58°24' E 005°06'1111.6
2017-Mar-26 16:33N 58°31' E 004°52'1212.1
2017-Mar-26 15:33N 58°41' E 004°36'20711.5
2017-Mar-25 21:33N 62°08' E 004°30'1110.4
2017-Mar-25 20:32N 62°14' E 004°48'1010.5
2017-Mar-25 19:33N 62°20' E 005°07'1010.4
2017-Mar-25 18:33N 62°26' E 005°25'1110.7
2017-Mar-25 17:32N 62°27' E 005°48'1212.1
2017-Mar-25 16:33N 62°23' E 006°13'10 9.1
2017-Mar-25 15:31N 62°23' E 006°34'0 0.0
2017-Mar-25 14:33N 62°23' E 006°34'0 0.0
2017-Mar-25 13:33N 62°23' E 006°34'0 0.0
2017-Mar-25 12:33N 62°23' E 006°34'0 0.0
2017-Mar-25 11:32N 62°23' E 006°34'0 0.0
2017-Mar-25 10:33N 62°23' E 006°34'6 5.6
2017-Mar-25 09:33N 62°24' E 006°22'7 7.2
2017-Mar-25 08:32N 62°27' E 006°07'1 1.2
2017-Mar-25 07:33N 62°28' E 006°08'0 0.0
2017-Mar-25 06:33N 62°28' E 006°08'0 0.0
2017-Mar-25 05:33N 62°28' E 006°08'0 0.0
2017-Mar-25 04:33N 62°28' E 006°08'0 0.0
2017-Mar-25 03:33N 62°28' E 006°08'0 0.0
2017-Mar-25 02:33N 62°28' E 006°08'0 0.0
2017-Mar-25 01:33N 62°28' E 006°08'0 0.0
2017-Mar-25 00:33N 62°28' E 006°08'0 0.1
2017-Mar-24 23:33N 62°28' E 006°08'6 5.7
2017-Mar-24 22:33N 62°27' E 005°56'9 9.2
2017-Mar-24 21:33N 62°34' E 005°43'9 9.2
2017-Mar-24 20:33N 62°41' E 005°56'1010.0
2017-Mar-24 19:33N 62°48' E 006°10'9 9.4
2017-Mar-24 18:33N 62°54' E 006°25'10 9.6
2017-Mar-24 17:33N 62°60' E 006°43'9 9.4
2017-Mar-24 16:33N 63°05' E 006°59'8 8.1
2017-Mar-24 15:33N 63°10' E 007°14'8 7.7
2017-Mar-24 14:33N 63°14' E 007°28'8 7.6
2017-Mar-24 13:33N 63°14' E 007°45'1110.7
2017-Mar-24 12:33N 63°16' E 008°08'1111.0
2017-Mar-24 11:33N 63°23' E 008°27'1110.9
2017-Mar-24 10:33N 63°28' E 008°49'1010.2
2017-Mar-24 09:33N 63°24' E 009°11'5 4.6
2017-Mar-24 08:33N 63°19' E 009°09'0 0.0
2017-Mar-24 07:33N 63°19' E 009°09'0 0.0
2017-Mar-24 06:33N 63°19' E 009°09'0 0.0
2017-Mar-24 05:33N 63°19' E 009°09'0 0.0
2017-Mar-24 04:33N 63°19' E 009°09'0 0.0
2017-Mar-24 03:33N 63°19' E 009°09'0 0.0
2017-Mar-24 02:33N 63°19' E 009°09'0 0.1
2017-Mar-24 01:33N 63°19' E 009°09'10 9.8
2017-Mar-24 00:34N 63°28' E 009°01'1413.8
2017-Mar-23 23:33N 63°24' E 008°32'1414.0
2017-Mar-23 22:33N 63°16' E 008°07'1312.9
2017-Mar-23 21:33N 63°15' E 007°39'1313.3
2017-Mar-23 20:33N 63°10' E 007°12'1413.6
2017-Mar-23 19:33N 63°01' E 006°48'1312.6
2017-Mar-23 18:33N 62°54' E 006°25'1313.3
2017-Mar-23 17:33N 62°45' E 006°03'1313.0
2017-Mar-23 16:33N 62°36' E 005°44'1812.9
2017-Mar-23 15:11N 62°23' E 005°17'812.5
2017-Mar-23 14:33N 62°16' E 005°08'1312.6
2017-Mar-23 13:33N 62°06' E 004°53'1212.3
2017-Mar-23 12:33N 61°55' E 004°42'1212.4
2017-Mar-23 11:33N 61°43' E 004°33'1212.0
2017-Mar-23 10:33N 61°31' E 004°28'1212.1
2017-Mar-23 09:33N 61°19' E 004°27'1212.5
2017-Mar-23 08:34N 61°07' E 004°26'1211.9
2017-Mar-23 07:34N 60°55' E 004°31'1211.7
2017-Mar-23 06:33N 60°45' E 004°42'1313.0
2017-Mar-23 05:33N 60°33' E 004°56'1312.8
2017-Mar-23 04:33N 60°23' E 005°11'4 3.7
2017-Mar-23 03:34N 60°23' E 005°19'3 2.5
2017-Mar-23 02:33N 60°24' E 005°14'1212.0
2017-Mar-23 01:33N 60°12' E 005°11'1111.0
2017-Mar-23 00:33N 60°04' E 004°57'1212.3
2017-Mar-22 23:33N 59°52' E 004°57'1211.7
2017-Mar-22 22:33N 59°40' E 004°57'1211.8
2017-Mar-22 21:33N 59°28' E 004°58'1211.5
2017-Mar-22 20:32N 59°17' E 005°01'1211.9
2017-Mar-22 19:33N 59°07' E 005°13'1111.4
2017-Mar-22 18:33N 59°18' E 005°20'3 2.7
2017-Mar-22 17:33N 59°20' E 005°18'0 0.0
2017-Mar-22 16:33N 59°20' E 005°18'0 0.0
2017-Mar-22 15:33N 59°20' E 005°18'0 0.0
2017-Mar-22 14:33N 59°20' E 005°18'0 0.0
2017-Mar-22 13:33N 59°20' E 005°18'0 0.0
2017-Mar-22 12:33N 59°20' E 005°18'0 0.0
2017-Mar-22 11:33N 59°20' E 005°18'0 0.0
2017-Mar-22 10:33N 59°20' E 005°18'0 0.0
2017-Mar-22 09:33N 59°20' E 005°18'0 0.0
2017-Mar-22 08:33N 59°20' E 005°18'0 0.0
2017-Mar-22 07:33N 59°20' E 005°18'9 9.3
2017-Mar-22 06:33N 59°11' E 005°21'1111.4
2017-Mar-22 05:33N 59°02' E 005°33'6 6.2
2017-Mar-22 04:31N 58°55' E 005°35'0 0.0
2017-Mar-22 03:33N 58°55' E 005°35'0 0.0
2017-Mar-22 02:33N 58°55' E 005°35'0 0.0
2017-Mar-22 01:33N 58°55' E 005°35'7 6.9
2017-Mar-22 00:33N 58°50' E 005°28'1211.8
2017-Mar-21 23:33N 58°38' E 005°24'1111.3
2017-Mar-21 22:33N 58°27' E 005°22'1110.5
2017-Mar-21 21:33N 58°17' E 005°29'17011.3
2017-Mar-21 06:32N 55°33' E 006°51'1313.0
2017-Mar-21 05:33N 55°20' E 006°57'1313.0
2017-Mar-21 04:33N 55°08' E 007°02'1312.8
2017-Mar-21 03:33N 54°55' E 007°07'1312.5
2017-Mar-21 02:33N 54°43' E 007°13'4811.8
2017-Mar-20 22:27N 53°58' E 007°42'910.4
2017-Mar-20 21:33N 53°52' E 007°54'1212.4
2017-Mar-20 20:33N 53°46' E 008°12'1413.9
2017-Mar-20 19:33N 53°37' E 008°30'2 2.0
2017-Mar-20 18:32N 53°35' E 008°32'0 0.0
2017-Mar-20 17:34N 53°35' E 008°32'0 0.0
2017-Mar-20 16:33N 53°35' E 008°32'0 0.0
2017-Mar-20 15:33N 53°35' E 008°32'0 0.1
2017-Mar-20 14:33N 53°35' E 008°32'1211.9
2017-Mar-20 13:33N 53°43' E 008°17'1514.5
2017-Mar-20 12:33N 53°51' E 007°57'9 8.8
2017-Mar-20 11:33N 53°59' E 008°03'1111.0
2017-Mar-20 10:33N 53°60' E 008°22'1414.0
2017-Mar-20 09:34N 53°53' E 008°43'1414.0
2017-Mar-20 08:34N 53°53' E 009°06'1110.9
2017-Mar-20 07:33N 53°48' E 009°23'1211.9
2017-Mar-20 06:33N 53°37' E 009°33'1010.4
2017-Mar-20 05:33N 53°33' E 009°49'4 3.6
2017-Mar-20 04:33N 53°32' E 009°55'0 0.0
2017-Mar-20 03:33N 53°32' E 009°55'0 0.0
2017-Mar-20 02:33N 53°32' E 009°55'0 0.0
2017-Mar-20 01:33N 53°32' E 009°55'0 0.0
2017-Mar-20 00:33N 53°32' E 009°55'0 0.0
2017-Mar-19 23:33N 53°32' E 009°55'0 0.0
2017-Mar-19 22:33N 53°32' E 009°55'0 0.0
2017-Mar-19 21:33N 53°32' E 009°55'0 0.0
2017-Mar-19 20:33N 53°32' E 009°55'0 0.0
2017-Mar-19 19:33N 53°32' E 009°55'0 0.0
2017-Mar-19 18:33N 53°32' E 009°55'0 0.1
2017-Mar-19 17:33N 53°32' E 009°55'1 0.7
2017-Mar-19 16:32N 53°32' E 009°55'0 0.0
2017-Mar-19 15:32N 53°32' E 009°55'0 0.0
2017-Mar-19 14:32N 53°32' E 009°55'0 0.0
2017-Mar-19 13:32N 53°32' E 009°55'0 0.0
2017-Mar-19 12:32N 53°32' E 009°55'0 0.0
2017-Mar-19 11:32N 53°32' E 009°55'0 0.0
2017-Mar-19 10:32N 53°32' E 009°55'0 0.0
2017-Mar-19 09:32N 53°32' E 009°55'0 0.0
2017-Mar-19 08:32N 53°32' E 009°55'0 0.0
2017-Mar-19 07:32N 53°32' E 009°55'0 0.0
2017-Mar-19 06:32N 53°32' E 009°55'0 0.1
2017-Mar-19 05:33N 53°32' E 009°55'1 1.3
2017-Mar-19 04:33N 53°31' E 009°56'0 0.0
2017-Mar-19 03:33N 53°31' E 009°56'0 0.0
2017-Mar-19 02:33N 53°31' E 009°56'0 0.0
2017-Mar-19 01:33N 53°31' E 009°56'0 0.0
2017-Mar-19 00:33N 53°31' E 009°56'0 0.0
2017-Mar-18 23:33N 53°31' E 009°56'0 0.0
2017-Mar-18 22:33N 53°31' E 009°56'2 2.0
2017-Mar-18 21:33N 53°32' E 009°55'9 8.5
2017-Mar-18 20:33N 53°34' E 009°41'1111.1
2017-Mar-18 19:33N 53°43' E 009°29'1312.6
2017-Mar-18 18:33N 53°52' E 009°15'1312.8
2017-Mar-18 17:33N 53°50' E 008°54'  
Track history (hours):
 
Tides and Currents Weather Stations Pressure Air Temp Water Temp Dewpoint Dewpoint Depression Visibility Wind Speed Wind Dir Waves Ship Positions

Berta

Last reported at 2017-Mar-28 17:33 UTC. Time now 2017-Mar-28 17:44 UTC.
Position N 53°32' E 009°55'.

Length 118 m; draft 7 m.

Type: Cargo ship. MMSI: 304586000.

Date/timePositionNaut miles runAvg speedWind from/ knotsBaromVisibWave heightAir tempDewpointWater temp
2017-Mar-28 17:33N 53°32' E 009°55'0 0.0
2017-Mar-28 16:33N 53°32' E 009°55'0 0.4
2017-Mar-28 15:33N 53°32' E 009°55'0 0.0
2017-Mar-28 14:33N 53°32' E 009°55'0 0.0
2017-Mar-28 13:33N 53°32' E 009°55'0 0.0
2017-Mar-28 12:33N 53°32' E 009°55'0 0.0
2017-Mar-28 11:33N 53°32' E 009°55'0 0.0
2017-Mar-28 10:33N 53°32' E 009°55'0 0.0
2017-Mar-28 09:33N 53°32' E 009°55'0 0.0
2017-Mar-28 08:33N 53°32' E 009°55'2 2.1
2017-Mar-28 07:33N 53°30' E 009°56'0 0.0
2017-Mar-28 06:33N 53°30' E 009°56'0 0.0
2017-Mar-28 05:33N 53°30' E 009°56'0 0.0
2017-Mar-28 04:33N 53°30' E 009°56'0 0.0
2017-Mar-28 03:33N 53°30' E 009°56'0 0.0
2017-Mar-28 02:33N 53°30' E 009°56'3 3.2
2017-Mar-28 01:33N 53°33' E 009°52'1312.7
2017-Mar-28 00:33N 53°37' E 009°32'1514.7
2017-Mar-27 23:34N 53°50' E 009°20'1312.9
2017-Mar-27 22:33N 53°51' E 008°58'1211.6
2017-Mar-27 21:33N 53°55' E 008°40'1313.0
2017-Mar-27 20:33N 53°59' E 008°19'1212.3
2017-Mar-27 19:34N 54°02' E 007°59'5 5.3
2017-Mar-27 18:33N 54°05' E 007°52'3 3.4
2017-Mar-27 17:33N 54°06' E 007°46'1111.3
2017-Mar-27 16:32N 54°13' E 007°30'2211.2
2017-Mar-27 14:34N 54°32' E 007°13'1110.9
2017-Mar-27 13:33N 54°42' E 007°05'1111.1
2017-Mar-27 12:33N 54°52' E 006°57'1111.1
2017-Mar-27 11:34N 55°02' E 006°49'1111.1
2017-Mar-27 10:33N 55°13' E 006°44'1111.4
2017-Mar-27 09:33N 55°24' E 006°39'1111.6
2017-Mar-27 08:34N 55°35' E 006°33'1611.4
2017-Mar-27 07:11N 55°51' E 006°28'9411.6
2017-Mar-26 23:05N 57°22' E 005°47'4211.8
2017-Mar-26 19:33N 58°03' E 005°27'1211.8
2017-Mar-26 18:33N 58°14' E 005°21'1211.6
2017-Mar-26 17:28N 58°24' E 005°06'1111.6
2017-Mar-26 16:33N 58°31' E 004°52'1212.1
2017-Mar-26 15:33N 58°41' E 004°36'20711.5
2017-Mar-25 21:33N 62°08' E 004°30'1110.4
2017-Mar-25 20:32N 62°14' E 004°48'1010.5
2017-Mar-25 19:33N 62°20' E 005°07'1010.4
2017-Mar-25 18:33N 62°26' E 005°25'1110.7
2017-Mar-25 17:32N 62°27' E 005°48'1212.1
2017-Mar-25 16:33N 62°23' E 006°13'10 9.1
2017-Mar-25 15:31N 62°23' E 006°34'0 0.0
2017-Mar-25 14:33N 62°23' E 006°34'0 0.0
2017-Mar-25 13:33N 62°23' E 006°34'0 0.0
2017-Mar-25 12:33N 62°23' E 006°34'0 0.0
2017-Mar-25 11:32N 62°23' E 006°34'0 0.0
2017-Mar-25 10:33N 62°23' E 006°34'6 5.6
2017-Mar-25 09:33N 62°24' E 006°22'7 7.2
2017-Mar-25 08:32N 62°27' E 006°07'1 1.2
2017-Mar-25 07:33N 62°28' E 006°08'0 0.0
2017-Mar-25 06:33N 62°28' E 006°08'0 0.0
2017-Mar-25 05:33N 62°28' E 006°08'0 0.0
2017-Mar-25 04:33N 62°28' E 006°08'0 0.0
2017-Mar-25 03:33N 62°28' E 006°08'0 0.0
2017-Mar-25 02:33N 62°28' E 006°08'0 0.0
2017-Mar-25 01:33N 62°28' E 006°08'0 0.0
2017-Mar-25 00:33N 62°28' E 006°08'0 0.1
2017-Mar-24 23:33N 62°28' E 006°08'6 5.7
2017-Mar-24 22:33N 62°27' E 005°56'9 9.2
2017-Mar-24 21:33N 62°34' E 005°43'9 9.2
2017-Mar-24 20:33N 62°41' E 005°56'1010.0
2017-Mar-24 19:33N 62°48' E 006°10'9 9.4
2017-Mar-24 18:33N 62°54' E 006°25'10 9.6
2017-Mar-24 17:33N 62°60' E 006°43'9 9.4
2017-Mar-24 16:33N 63°05' E 006°59'8 8.1
2017-Mar-24 15:33N 63°10' E 007°14'8 7.7
2017-Mar-24 14:33N 63°14' E 007°28'8 7.6
2017-Mar-24 13:33N 63°14' E 007°45'1110.7
2017-Mar-24 12:33N 63°16' E 008°08'1111.0
2017-Mar-24 11:33N 63°23' E 008°27'1110.9
2017-Mar-24 10:33N 63°28' E 008°49'1010.2
2017-Mar-24 09:33N 63°24' E 009°11'5 4.6
2017-Mar-24 08:33N 63°19' E 009°09'0 0.0
2017-Mar-24 07:33N 63°19' E 009°09'0 0.0
2017-Mar-24 06:33N 63°19' E 009°09'0 0.0
2017-Mar-24 05:33N 63°19' E 009°09'0 0.0
2017-Mar-24 04:33N 63°19' E 009°09'0 0.0
2017-Mar-24 03:33N 63°19' E 009°09'0 0.0
2017-Mar-24 02:33N 63°19' E 009°09'0 0.1
2017-Mar-24 01:33N 63°19' E 009°09'10 9.8
2017-Mar-24 00:34N 63°28' E 009°01'1413.8
2017-Mar-23 23:33N 63°24' E 008°32'1414.0
2017-Mar-23 22:33N 63°16' E 008°07'1312.9
2017-Mar-23 21:33N 63°15' E 007°39'1313.3
2017-Mar-23 20:33N 63°10' E 007°12'1413.6
2017-Mar-23 19:33N 63°01' E 006°48'1312.6
2017-Mar-23 18:33N 62°54' E 006°25'1313.3
2017-Mar-23 17:33N 62°45' E 006°03'1313.0
2017-Mar-23 16:33N 62°36' E 005°44'1812.9
2017-Mar-23 15:11N 62°23' E 005°17'812.5
2017-Mar-23 14:33N 62°16' E 005°08'1312.6
2017-Mar-23 13:33N 62°06' E 004°53'1212.3
2017-Mar-23 12:33N 61°55' E 004°42'1212.4
2017-Mar-23 11:33N 61°43' E 004°33'1212.0
2017-Mar-23 10:33N 61°31' E 004°28'1212.1
2017-Mar-23 09:33N 61°19' E 004°27'1212.5
2017-Mar-23 08:34N 61°07' E 004°26'1211.9
2017-Mar-23 07:34N 60°55' E 004°31'1211.7
2017-Mar-23 06:33N 60°45' E 004°42'1313.0
2017-Mar-23 05:33N 60°33' E 004°56'1312.8
2017-Mar-23 04:33N 60°23' E 005°11'4 3.7
2017-Mar-23 03:34N 60°23' E 005°19'3 2.5
2017-Mar-23 02:33N 60°24' E 005°14'1212.0
2017-Mar-23 01:33N 60°12' E 005°11'1111.0
2017-Mar-23 00:33N 60°04' E 004°57'1212.3
2017-Mar-22 23:33N 59°52' E 004°57'1211.7
2017-Mar-22 22:33N 59°40' E 004°57'1211.8
2017-Mar-22 21:33N 59°28' E 004°58'1211.5
2017-Mar-22 20:32N 59°17' E 005°01'1211.9
2017-Mar-22 19:33N 59°07' E 005°13'1111.4
2017-Mar-22 18:33N 59°18' E 005°20'3 2.7
2017-Mar-22 17:33N 59°20' E 005°18'0 0.0
2017-Mar-22 16:33N 59°20' E 005°18'0 0.0
2017-Mar-22 15:33N 59°20' E 005°18'0 0.0
2017-Mar-22 14:33N 59°20' E 005°18'0 0.0
2017-Mar-22 13:33N 59°20' E 005°18'0 0.0
2017-Mar-22 12:33N 59°20' E 005°18'0 0.0
2017-Mar-22 11:33N 59°20' E 005°18'0 0.0
2017-Mar-22 10:33N 59°20' E 005°18'0 0.0
2017-Mar-22 09:33N 59°20' E 005°18'0 0.0
2017-Mar-22 08:33N 59°20' E 005°18'0 0.0
2017-Mar-22 07:33N 59°20' E 005°18'9 9.3
2017-Mar-22 06:33N 59°11' E 005°21'1111.4
2017-Mar-22 05:33N 59°02' E 005°33'6 6.2
2017-Mar-22 04:31N 58°55' E 005°35'0 0.0
2017-Mar-22 03:33N 58°55' E 005°35'0 0.0
2017-Mar-22 02:33N 58°55' E 005°35'0 0.0
2017-Mar-22 01:33N 58°55' E 005°35'7 6.9
2017-Mar-22 00:33N 58°50' E 005°28'1211.8
2017-Mar-21 23:33N 58°38' E 005°24'1111.3
2017-Mar-21 22:33N 58°27' E 005°22'1110.5
2017-Mar-21 21:33N 58°17' E 005°29'17011.3
2017-Mar-21 06:32N 55°33' E 006°51'1313.0
2017-Mar-21 05:33N 55°20' E 006°57'1313.0
2017-Mar-21 04:33N 55°08' E 007°02'1312.8
2017-Mar-21 03:33N 54°55' E 007°07'1312.5
2017-Mar-21 02:33N 54°43' E 007°13'4811.8
2017-Mar-20 22:27N 53°58' E 007°42'910.4
2017-Mar-20 21:33N 53°52' E 007°54'1212.4
2017-Mar-20 20:33N 53°46' E 008°12'1413.9
2017-Mar-20 19:33N 53°37' E 008°30'2 2.0
2017-Mar-20 18:32N 53°35' E 008°32'0 0.0
2017-Mar-20 17:34N 53°35' E 008°32'0 0.0
2017-Mar-20 16:33N 53°35' E 008°32'0 0.0
2017-Mar-20 15:33N 53°35' E 008°32'0 0.1
2017-Mar-20 14:33N 53°35' E 008°32'1211.9
2017-Mar-20 13:33N 53°43' E 008°17'1514.5
2017-Mar-20 12:33N 53°51' E 007°57'9 8.8
2017-Mar-20 11:33N 53°59' E 008°03'1111.0
2017-Mar-20 10:33N 53°60' E 008°22'1414.0
2017-Mar-20 09:34N 53°53' E 008°43'1414.0
2017-Mar-20 08:34N 53°53' E 009°06'1110.9
2017-Mar-20 07:33N 53°48' E 009°23'1211.9
2017-Mar-20 06:33N 53°37' E 009°33'1010.4
2017-Mar-20 05:33N 53°33' E 009°49'4 3.6
2017-Mar-20 04:33N 53°32' E 009°55'0 0.0
2017-Mar-20 03:33N 53°32' E 009°55'0 0.0
2017-Mar-20 02:33N 53°32' E 009°55'0 0.0
2017-Mar-20 01:33N 53°32' E 009°55'0 0.0
2017-Mar-20 00:33N 53°32' E 009°55'0 0.0
2017-Mar-19 23:33N 53°32' E 009°55'0 0.0
2017-Mar-19 22:33N 53°32' E 009°55'0 0.0
2017-Mar-19 21:33N 53°32' E 009°55'0 0.0
2017-Mar-19 20:33N 53°32' E 009°55'0 0.0
2017-Mar-19 19:33N 53°32' E 009°55'0 0.0
2017-Mar-19 18:33N 53°32' E 009°55'0 0.1
2017-Mar-19 17:33N 53°32' E 009°55'1 0.7
2017-Mar-19 16:32N 53°32' E 009°55'0 0.0
2017-Mar-19 15:32N 53°32' E 009°55'0 0.0
2017-Mar-19 14:32N 53°32' E 009°55'0 0.0
2017-Mar-19 13:32N 53°32' E 009°55'0 0.0
2017-Mar-19 12:32N 53°32' E 009°55'0 0.0
2017-Mar-19 11:32N 53°32' E 009°55'0 0.0
2017-Mar-19 10:32N 53°32' E 009°55'0 0.0
2017-Mar-19 09:32N 53°32' E 009°55'0 0.0
2017-Mar-19 08:32N 53°32' E 009°55'0 0.0
2017-Mar-19 07:32N 53°32' E 009°55'0 0.0
2017-Mar-19 06:32N 53°32' E 009°55'0 0.1
2017-Mar-19 05:33N 53°32' E 009°55'1 1.3
2017-Mar-19 04:33N 53°31' E 009°56'0 0.0
2017-Mar-19 03:33N 53°31' E 009°56'0 0.0
2017-Mar-19 02:33N 53°31' E 009°56'0 0.0
2017-Mar-19 01:33N 53°31' E 009°56'0 0.0
2017-Mar-19 00:33N 53°31' E 009°56'0 0.0
2017-Mar-18 23:33N 53°31' E 009°56'0 0.0
2017-Mar-18 22:33N 53°31' E 009°56'2 2.0
2017-Mar-18 21:33N 53°32' E 009°55'9 8.5
2017-Mar-18 20:33N 53°34' E 009°41'1111.1
2017-Mar-18 19:33N 53°43' E 009°29'1312.6
2017-Mar-18 18:33N 53°52' E 009°15'1312.8
2017-Mar-18 17:33N 53°50' E 008°54'  

Dump ship's entire track history